createdAt,value
2018-06-16T00:01:15.243Z,8.37
2018-06-16T00:03:43.721Z,8.90
2018-06-16T00:06:12.283Z,9.00
2018-06-16T00:08:40.746Z,8.07
2018-06-16T00:11:09.914Z,9.00
2018-06-16T00:13:38.410Z,8.70
2018-06-16T00:16:06.837Z,10.27
2018-06-16T00:18:35.316Z,7.90
2018-06-16T00:21:03.785Z,8.17
2018-06-16T00:23:32.250Z,8.07
2018-06-16T00:26:00.702Z,7.70
2018-06-16T00:28:29.119Z,8.40
2018-06-16T00:30:57.654Z,8.00
2018-06-16T00:33:26.110Z,7.33
2018-06-16T00:35:54.877Z,7.17
2018-06-16T00:38:23.523Z,7.20
2018-06-16T00:40:52.213Z,8.23
2018-06-16T00:43:21.090Z,8.70
2018-06-16T00:45:49.533Z,7.87
2018-06-16T00:48:18.026Z,7.07
2018-06-16T00:50:46.475Z,7.67
2018-06-16T00:53:15.074Z,6.57
2018-06-16T00:55:43.532Z,6.93
2018-06-16T00:58:12.078Z,5.87
2018-06-16T01:00:40.542Z,8.10
2018-06-16T01:03:09.105Z,6.90
2018-06-16T01:05:37.658Z,7.10
2018-06-16T01:08:06.792Z,5.90
2018-06-16T01:10:35.637Z,6.47
2018-06-16T01:13:04.691Z,6.97
2018-06-16T01:15:33.230Z,7.90
2018-06-16T01:18:01.740Z,6.40
2018-06-16T01:20:30.223Z,5.60
2018-06-16T01:22:58.755Z,7.53
2018-06-16T01:25:27.272Z,6.43
2018-06-16T01:27:55.771Z,6.43
2018-06-16T01:30:24.475Z,6.93
2018-06-16T01:32:53.009Z,6.97
2018-06-16T01:35:21.617Z,6.60
2018-06-16T01:37:50.339Z,6.87
2018-06-16T01:40:18.818Z,6.20
2018-06-16T01:42:47.269Z,6.47
2018-06-16T01:45:15.803Z,6.20
2018-06-16T01:47:44.358Z,5.90
2018-06-16T01:50:12.825Z,5.17
2018-06-16T01:52:41.361Z,5.37
2018-06-16T01:55:09.822Z,5.13
2018-06-16T01:57:38.355Z,5.30
2018-06-16T02:02:57.136Z,5.20
2018-06-16T02:05:25.691Z,6.27
2018-06-16T02:07:54.219Z,5.13
2018-06-16T02:10:22.832Z,4.87
2018-06-16T02:12:51.297Z,5.10
2018-06-16T02:15:19.731Z,5.50
2018-06-16T02:17:48.207Z,5.33
2018-06-16T02:20:16.690Z,5.27
2018-06-16T02:22:45.084Z,4.90
2018-06-16T02:25:13.506Z,5.30
2018-06-16T02:27:41.956Z,5.03
2018-06-16T02:30:10.497Z,4.60
2018-06-16T02:32:39.044Z,4.67
2018-06-16T02:35:07.571Z,5.37
2018-06-16T02:37:36.008Z,4.57
2018-06-16T02:40:04.495Z,5.70
2018-06-16T02:42:32.966Z,5.37
2018-06-16T02:45:01.577Z,5.30
2018-06-16T02:47:30.021Z,4.60
2018-06-16T02:49:58.464Z,5.10
2018-06-16T02:52:26.940Z,4.90
2018-06-16T02:54:55.396Z,4.63
2018-06-16T02:57:24.538Z,4.23
2018-06-16T02:59:53.070Z,5.13
2018-06-16T03:02:21.571Z,5.53
2018-06-16T03:04:50.093Z,5.23
2018-06-16T03:07:18.748Z,5.70
2018-06-16T03:09:47.205Z,4.60
2018-06-16T03:12:15.689Z,4.03
2018-06-16T03:14:44.127Z,4.10
2018-06-16T03:17:12.642Z,4.73
2018-06-16T03:19:41.127Z,5.60
2018-06-16T03:22:09.697Z,3.60
2018-06-16T03:24:38.204Z,3.83
2018-06-16T03:27:06.765Z,3.57
2018-06-16T03:29:35.401Z,4.00
2018-06-16T03:32:03.911Z,3.33
2018-06-16T03:34:32.499Z,4.30
2018-06-16T03:37:00.932Z,4.43
2018-06-16T03:39:29.408Z,4.00
2018-06-16T03:41:57.897Z,3.90
2018-06-16T03:44:26.533Z,4.37
2018-06-16T03:46:54.998Z,4.30
2018-06-16T03:49:23.461Z,3.80
2018-06-16T03:51:51.959Z,4.13
2018-06-16T03:54:20.484Z,4.00
2018-06-16T03:56:49.027Z,4.03
2018-06-16T03:59:17.543Z,3.90
2018-06-16T04:01:46.038Z,3.73
2018-06-16T04:04:15.064Z,4.67
2018-06-16T04:06:43.538Z,3.73
2018-06-16T04:09:12.279Z,4.37
2018-06-16T04:11:40.752Z,4.37
2018-06-16T04:14:09.242Z,4.40
2018-06-16T04:16:37.827Z,3.33
2018-06-16T04:19:06.311Z,4.13
2018-06-16T04:21:35.039Z,4.97
2018-06-16T04:24:03.629Z,4.63
2018-06-16T04:26:32.067Z,3.70
2018-06-16T04:29:00.592Z,4.17
2018-06-16T04:31:29.187Z,4.27
2018-06-16T04:33:57.750Z,4.10
2018-06-16T04:36:26.187Z,4.13
2018-06-16T04:38:54.728Z,4.40
2018-06-16T04:41:23.169Z,3.83
2018-06-16T04:43:51.712Z,3.43
2018-06-16T04:46:20.101Z,3.70
2018-06-16T04:48:48.623Z,3.90
2018-06-16T04:51:17.121Z,4.07
2018-06-16T04:53:45.601Z,3.60
2018-06-16T04:56:14.203Z,3.60
2018-06-16T04:58:42.813Z,3.50
2018-06-16T05:01:11.324Z,3.90
2018-06-16T05:03:39.804Z,4.00
2018-06-16T05:06:08.284Z,4.13
2018-06-16T05:08:36.723Z,4.20
2018-06-16T05:11:05.179Z,4.20
2018-06-16T05:13:33.677Z,4.30
2018-06-16T05:16:02.238Z,4.30
2018-06-16T05:18:30.706Z,3.97
2018-06-16T05:20:59.230Z,4.20
2018-06-16T05:23:27.900Z,4.03
2018-06-16T05:25:56.655Z,4.00
2018-06-16T05:28:25.870Z,3.83
2018-06-16T05:30:54.614Z,3.37
2018-06-16T05:33:23.072Z,4.13
2018-06-16T05:35:58.547Z,4.03
2018-06-16T05:38:27.443Z,3.50
2018-06-16T05:40:55.966Z,4.10
2018-06-16T05:43:24.459Z,3.27
2018-06-16T05:45:52.980Z,3.90
2018-06-16T05:48:21.448Z,3.63
2018-06-16T05:50:49.973Z,4.23
2018-06-16T05:53:19.709Z,3.53
2018-06-16T05:55:48.142Z,4.50
2018-06-16T05:58:16.600Z,3.37
2018-06-16T06:00:45.043Z,3.80
2018-06-16T06:03:13.580Z,3.63
2018-06-16T06:05:42.164Z,4.00
2018-06-16T06:08:10.291Z,4.40
2018-06-16T06:10:38.823Z,3.60
2018-06-16T06:13:07.292Z,3.87
2018-06-16T06:15:35.981Z,3.70
2018-06-16T06:18:04.502Z,4.00
2018-06-16T06:20:32.932Z,3.73
2018-06-16T06:23:01.614Z,3.90
2018-06-16T06:25:30.508Z,3.03
2018-06-16T06:27:58.987Z,3.57
2018-06-16T06:30:27.536Z,4.50
2018-06-16T06:32:56.033Z,4.10
2018-06-16T06:35:24.501Z,4.13
2018-06-16T06:37:53.263Z,3.57
2018-06-16T06:40:21.772Z,3.87
2018-06-16T06:42:50.221Z,4.13
2018-06-16T06:45:18.769Z,3.30
2018-06-16T06:47:47.366Z,3.25
2018-06-16T06:50:15.927Z,3.02
2018-06-16T06:52:44.395Z,3.27
2018-06-16T06:55:12.908Z,3.20
2018-06-16T06:57:41.372Z,3.72
2018-06-16T07:00:09.823Z,4.28
2018-06-16T07:02:38.292Z,4.12
2018-06-16T07:05:07.275Z,4.40
2018-06-16T07:07:35.710Z,4.97
2018-06-16T07:10:04.284Z,5.05
2018-06-16T07:12:33.249Z,4.10
2018-06-16T07:15:02.088Z,3.80
2018-06-16T07:17:30.592Z,3.42
2018-06-16T07:19:59.389Z,3.50
2018-06-16T07:22:27.856Z,3.08
2018-06-16T07:24:56.380Z,3.45
2018-06-16T07:27:24.791Z,3.83
2018-06-16T07:29:53.309Z,3.92
2018-06-16T07:32:21.844Z,3.40
2018-06-16T07:34:50.519Z,3.72
2018-06-16T07:37:19.062Z,3.02
2018-06-16T07:39:47.870Z,3.20
2018-06-16T07:42:16.326Z,3.37
2018-06-16T07:44:44.816Z,3.58
2018-06-16T07:47:13.341Z,4.40
2018-06-16T07:49:44.516Z,4.03
2018-06-16T07:52:13.085Z,3.80
2018-06-16T07:54:41.667Z,3.45
2018-06-16T07:57:10.117Z,3.22
2018-06-16T07:59:38.770Z,3.42
2018-06-16T08:02:07.554Z,3.35
2018-06-16T08:04:36.093Z,5.15
2018-06-16T08:07:04.682Z,3.75
2018-06-16T08:09:33.741Z,2.85
2018-06-16T08:12:02.161Z,2.25
2018-06-16T08:14:30.608Z,2.52
2018-06-16T08:16:59.037Z,3.45
2018-06-16T08:19:27.539Z,2.52
2018-06-16T08:21:55.988Z,2.90
2018-06-16T08:24:24.435Z,2.80
2018-06-16T08:26:52.860Z,2.60
2018-06-16T08:29:21.274Z,3.17
2018-06-16T08:31:49.709Z,2.52
2018-06-16T08:34:18.257Z,2.75
2018-06-16T08:36:53.208Z,3.35
2018-06-16T08:39:21.664Z,3.40
2018-06-16T08:41:50.181Z,3.70
2018-06-16T08:44:18.623Z,3.70
2018-06-16T08:46:47.102Z,3.83
2018-06-16T08:49:15.508Z,2.98
2018-06-16T08:51:43.995Z,4.08
2018-06-16T08:54:12.440Z,3.77
2018-06-16T08:56:40.984Z,2.90
2018-06-16T08:59:09.515Z,3.17
2018-06-16T09:01:37.964Z,2.67
2018-06-16T09:04:06.482Z,3.58
2018-06-16T09:06:35.045Z,3.37
2018-06-16T09:09:04.098Z,2.77
2018-06-16T09:11:32.567Z,2.22
2018-06-16T09:14:01.102Z,3.40
2018-06-16T09:16:29.597Z,3.25
2018-06-16T09:18:58.257Z,2.98
2018-06-16T09:21:26.740Z,2.75
2018-06-16T09:23:55.163Z,3.37
2018-06-16T09:26:23.637Z,2.47
2018-06-16T09:28:52.130Z,2.25
2018-06-16T09:31:20.579Z,2.67
2018-06-16T09:33:52.036Z,2.58
2018-06-16T09:36:20.536Z,2.98
2018-06-16T09:38:48.984Z,3.67
2018-06-16T09:41:17.492Z,3.08
2018-06-16T09:43:45.980Z,2.50
2018-06-16T09:46:14.521Z,2.55
2018-06-16T09:48:43.221Z,3.50
2018-06-16T09:51:11.714Z,3.30
2018-06-16T09:54:14.173Z,3.70
2018-06-16T09:56:42.678Z,2.92
2018-06-16T09:59:11.197Z,2.75
2018-06-16T10:01:39.771Z,2.35
2018-06-16T10:04:08.404Z,2.45
2018-06-16T10:06:37.310Z,3.20
2018-06-16T10:09:07.742Z,2.05
2018-06-16T10:11:36.268Z,2.60
2018-06-16T10:14:05.059Z,2.50
2018-06-16T10:16:33.586Z,3.37
2018-06-16T10:19:02.158Z,2.37
2018-06-16T10:21:30.695Z,1.92
2018-06-16T10:23:59.379Z,2.50
2018-06-16T10:26:27.908Z,2.22
2018-06-16T10:28:56.431Z,1.92
2018-06-16T10:31:24.901Z,2.50
2018-06-16T10:33:53.513Z,2.05
2018-06-16T10:36:22.000Z,2.60
2018-06-16T10:38:50.543Z,2.20
2018-06-16T10:41:19.053Z,2.27
2018-06-16T10:43:47.651Z,2.52
2018-06-16T10:46:16.157Z,2.80
2018-06-16T10:48:44.767Z,2.33
2018-06-16T10:51:13.321Z,2.52
2018-06-16T10:53:41.922Z,1.80
2018-06-16T10:56:10.094Z,2.37
2018-06-16T10:58:39.096Z,2.37
2018-06-16T11:01:07.853Z,2.40
2018-06-16T11:03:36.406Z,2.37
2018-06-16T11:06:04.862Z,2.98
2018-06-16T11:08:33.412Z,2.15
2018-06-16T11:11:01.947Z,2.42
2018-06-16T11:13:30.554Z,2.47
2018-06-16T11:15:59.061Z,2.77
2018-06-16T11:18:27.683Z,2.60
2018-06-16T11:20:56.504Z,3.40
2018-06-16T11:23:25.087Z,3.15
2018-06-16T11:25:53.637Z,3.67
2018-06-16T11:28:22.115Z,3.22
2018-06-16T11:30:50.589Z,3.47
2018-06-16T11:46:18.532Z,4.00
2018-06-16T11:48:47.113Z,4.00
2018-06-16T11:51:15.596Z,3.35
2018-06-16T11:53:44.057Z,3.80
2018-06-16T11:56:12.717Z,3.13
2018-06-16T11:58:41.452Z,3.50
2018-06-16T12:01:09.962Z,3.27
2018-06-16T12:03:38.621Z,3.83
2018-06-16T12:06:07.222Z,4.27
2018-06-16T12:08:35.765Z,4.27
2018-06-16T12:11:04.345Z,4.23
2018-06-16T12:13:32.922Z,4.03
2018-06-16T12:16:01.546Z,5.60
2018-06-16T12:18:30.017Z,4.43
2018-06-16T12:20:58.519Z,4.57
2018-06-16T12:23:26.958Z,3.83
2018-06-16T12:25:55.508Z,3.60
2018-06-16T12:28:24.293Z,4.10
2018-06-16T12:30:52.508Z,4.43
2018-06-16T12:33:21.022Z,4.20
2018-06-16T12:35:49.565Z,5.00
2018-06-16T12:38:18.120Z,4.13
2018-06-16T12:40:46.551Z,4.10
2018-06-16T12:43:15.219Z,4.03
2018-06-16T12:45:44.147Z,5.03
2018-06-16T12:48:12.798Z,4.73
2018-06-16T12:50:41.405Z,4.83
2018-06-16T12:53:10.165Z,4.67
2018-06-16T12:55:38.808Z,4.75
2018-06-16T12:58:07.364Z,4.00
2018-06-16T13:00:36.261Z,4.78
2018-06-16T13:03:04.782Z,4.65
2018-06-16T13:18:34.551Z,4.97
2018-06-16T13:21:03.040Z,4.90
2018-06-16T13:23:31.502Z,5.50
2018-06-16T13:26:00.046Z,5.70
2018-06-16T13:28:28.576Z,5.15
2018-06-16T13:30:57.073Z,4.43
2018-06-16T13:33:25.980Z,5.43
2018-06-16T13:35:54.803Z,5.57
2018-06-16T13:38:23.322Z,4.70
2018-06-16T13:40:51.839Z,4.80
2018-06-16T13:43:20.547Z,5.17
2018-06-16T13:45:49.046Z,6.23
2018-06-16T13:48:17.559Z,5.93
2018-06-16T13:50:46.951Z,5.45
2018-06-16T13:53:15.215Z,5.85
2018-06-16T13:55:44.645Z,4.67
2018-06-16T13:58:13.275Z,4.90
2018-06-16T14:00:41.841Z,6.20
2018-06-16T14:03:10.312Z,5.37
2018-06-16T14:05:38.855Z,5.07
2018-06-16T14:08:07.511Z,4.80
2018-06-16T14:10:36.501Z,5.27
2018-06-16T14:13:05.279Z,6.07
2018-06-16T14:15:33.950Z,5.70
2018-06-16T14:18:02.974Z,6.30
2018-06-16T14:20:31.430Z,6.73
2018-06-16T14:22:59.878Z,6.80
2018-06-16T14:25:28.409Z,7.10
2018-06-16T14:27:56.876Z,6.80
2018-06-16T14:30:25.329Z,7.60
2018-06-16T14:32:53.853Z,7.43
2018-06-16T14:35:22.348Z,7.53
2018-06-16T14:37:50.805Z,7.53
2018-06-16T14:40:19.719Z,8.27
2018-06-16T14:42:48.661Z,8.10
2018-06-16T14:45:17.263Z,9.10
2018-06-16T14:47:45.916Z,10.03
2018-06-16T14:50:14.400Z,9.30
2018-06-16T14:52:43.080Z,9.00
2018-06-16T14:55:11.517Z,11.20
2018-06-16T14:57:39.985Z,11.17
2018-06-16T15:00:08.582Z,11.80
2018-06-16T15:02:37.022Z,11.83
2018-06-16T15:05:12.021Z,13.23
2018-06-16T15:07:40.555Z,11.90
2018-06-16T15:10:09.038Z,11.63
2018-06-16T15:12:37.585Z,10.70
2018-06-16T15:15:06.019Z,8.90
2018-06-16T15:17:34.702Z,10.50
2018-06-16T15:20:03.301Z,6.97
2018-06-16T15:22:31.934Z,7.73
2018-06-16T15:25:00.561Z,7.57
2018-06-16T15:27:29.190Z,7.73
2018-06-16T15:29:57.306Z,7.07
2018-06-16T15:32:25.768Z,7.20
2018-06-16T15:34:54.442Z,7.30
2018-06-16T15:37:23.373Z,7.07
2018-06-16T15:39:51.869Z,7.20
2018-06-16T15:42:20.401Z,6.80
2018-06-16T15:44:49.634Z,7.20
2018-06-16T15:47:18.120Z,6.03
2018-06-16T15:49:46.652Z,5.77
2018-06-16T15:52:14.745Z,6.00
2018-06-16T15:54:43.432Z,7.10
2018-06-16T15:57:12.039Z,5.20
2018-06-16T15:59:40.581Z,5.37
2018-06-16T16:02:09.028Z,5.53
2018-06-16T16:04:37.553Z,5.70
2018-06-16T16:07:06.179Z,6.60
2018-06-16T16:09:34.713Z,5.53
2018-06-16T16:12:03.183Z,6.43
2018-06-16T16:14:31.659Z,6.10
2018-06-16T16:17:03.033Z,5.77
2018-06-16T16:19:31.189Z,7.03
2018-06-16T16:22:00.090Z,6.60
2018-06-16T16:24:28.797Z,6.53
2018-06-16T16:26:57.275Z,6.37
2018-06-16T16:29:25.701Z,6.73
2018-06-16T16:31:54.235Z,6.80
2018-06-16T16:34:22.793Z,6.00
2018-06-16T16:36:51.659Z,6.97
2018-06-16T16:39:20.233Z,7.30
2018-06-16T16:41:48.933Z,8.17
2018-06-16T16:44:17.660Z,7.80
2018-06-16T16:46:46.173Z,8.10
2018-06-16T16:49:14.805Z,7.90
2018-06-16T16:51:43.408Z,8.10
2018-06-16T16:54:11.913Z,8.60
2018-06-16T16:56:40.480Z,8.07
2018-06-16T16:59:09.024Z,8.80
2018-06-16T17:01:37.827Z,9.40
2018-06-16T17:04:06.597Z,8.03
2018-06-16T17:06:35.272Z,8.47
2018-06-16T17:09:05.853Z,7.53
2018-06-16T17:11:34.507Z,8.37
2018-06-16T17:14:03.116Z,8.10
2018-06-16T17:16:31.679Z,9.60
2018-06-16T17:19:00.636Z,8.90
2018-06-16T17:21:28.875Z,8.50
2018-06-16T17:23:57.728Z,6.77
2018-06-16T17:26:26.355Z,6.43
2018-06-16T17:28:54.987Z,7.20
2018-06-16T17:31:23.601Z,6.37
2018-06-16T17:33:52.709Z,7.30
2018-06-16T17:36:21.205Z,6.70
2018-06-16T17:38:50.151Z,7.50
2018-06-16T17:41:18.832Z,6.20
2018-06-16T17:43:47.404Z,6.20
2018-06-16T17:46:15.955Z,6.40
2018-06-16T17:48:44.588Z,5.87
2018-06-16T17:51:13.342Z,7.13
2018-06-16T17:53:42.472Z,6.10
2018-06-16T17:56:10.936Z,6.30
2018-06-16T17:58:39.570Z,6.20
2018-06-16T18:01:08.108Z,5.60
2018-06-16T18:03:36.604Z,5.30
2018-06-16T18:06:05.129Z,5.73
2018-06-16T18:08:33.781Z,5.30
2018-06-16T18:11:02.289Z,5.20
2018-06-16T18:13:30.872Z,5.77
2018-06-16T18:15:59.829Z,5.53
2018-06-16T18:18:28.549Z,5.60
2018-06-16T18:20:57.005Z,5.80
2018-06-16T18:23:25.533Z,5.90
2018-06-16T18:25:54.474Z,5.73
2018-06-16T18:28:23.180Z,6.23
2018-06-16T18:30:51.744Z,6.30
2018-06-16T18:33:20.280Z,6.70
2018-06-16T18:35:49.011Z,6.40
2018-06-16T18:38:18.462Z,6.40
2018-06-16T18:40:46.981Z,5.80
2018-06-16T18:43:15.777Z,7.00
2018-06-16T18:45:44.317Z,5.53
2018-06-16T18:48:12.916Z,6.03
2018-06-16T18:50:41.551Z,5.63
2018-06-16T18:53:10.086Z,5.73
2018-06-16T18:55:38.640Z,6.53
2018-06-16T18:58:07.388Z,5.77
2018-06-16T19:00:35.920Z,5.80
2018-06-16T19:03:04.490Z,6.10
2018-06-16T19:05:33.112Z,6.43
2018-06-16T19:08:01.696Z,5.03
2018-06-16T19:10:30.146Z,6.07
2018-06-16T19:12:58.837Z,5.63
2018-06-16T19:15:27.350Z,5.70
2018-06-16T19:17:55.849Z,5.27
2018-06-16T19:20:24.510Z,5.73
2018-06-16T19:22:53.954Z,5.70
2018-06-16T19:25:24.496Z,6.00
2018-06-16T19:27:57.773Z,5.50
2018-06-16T19:30:26.270Z,6.07
2018-06-16T19:32:54.739Z,6.20
2018-06-16T19:35:23.493Z,6.73
2018-06-16T19:37:51.989Z,5.77
2018-06-16T19:40:20.557Z,5.57
2018-06-16T19:42:49.154Z,6.13
2018-06-16T19:45:19.242Z,6.20
2018-06-16T19:47:47.702Z,6.10
2018-06-16T19:50:16.228Z,5.60
2018-06-16T19:52:44.827Z,5.60
2018-06-16T19:55:13.363Z,5.87
2018-06-16T19:57:42.259Z,7.33
2018-06-16T20:00:11.265Z,5.50
2018-06-16T20:02:39.984Z,5.30
2018-06-16T20:05:08.541Z,4.87
2018-06-16T20:07:37.803Z,6.57
2018-06-16T20:10:07.006Z,6.07
2018-06-16T20:12:35.828Z,5.77
2018-06-16T20:15:04.684Z,5.97
2018-06-16T20:17:33.794Z,5.20
2018-06-16T20:20:02.437Z,6.60
2018-06-16T20:22:31.538Z,6.27
2018-06-16T20:25:00.400Z,6.17
2018-06-16T20:27:28.957Z,7.40
2018-06-16T20:29:57.522Z,6.30
2018-06-16T20:32:26.085Z,5.67
2018-06-16T20:34:55.078Z,6.00
2018-06-16T20:37:23.912Z,6.07
2018-06-16T20:39:52.515Z,4.70
2018-06-16T20:42:21.248Z,5.63
2018-06-16T20:44:50.207Z,6.50
2018-06-16T20:47:18.955Z,5.63
2018-06-16T20:49:48.072Z,5.63
2018-06-16T20:52:16.590Z,5.67
2018-06-16T20:54:45.146Z,6.40
2018-06-16T20:57:13.610Z,5.43
2018-06-16T20:59:42.298Z,5.10
2018-06-16T21:02:10.833Z,5.93
2018-06-16T21:04:39.293Z,5.47
2018-06-16T21:07:08.245Z,5.87
2018-06-16T21:09:37.060Z,5.47
2018-06-16T21:12:06.840Z,6.70
2018-06-16T21:14:35.507Z,4.53
2018-06-16T21:17:04.185Z,5.50
2018-06-16T21:19:32.802Z,5.50
2018-06-16T21:22:02.185Z,6.43
2018-06-16T21:24:30.977Z,6.00
2018-06-16T21:26:59.463Z,5.40
2018-06-16T21:29:28.036Z,5.30
2018-06-16T21:31:56.553Z,5.60
2018-06-16T21:34:25.094Z,5.90
2018-06-16T21:36:53.612Z,5.80
2018-06-16T21:39:22.421Z,5.90
2018-06-16T21:41:51.157Z,5.90
2018-06-16T21:44:20.252Z,5.90
2018-06-16T21:46:48.936Z,5.80
2018-06-16T21:49:17.499Z,5.00
2018-06-16T21:51:46.122Z,5.50
2018-06-16T21:54:15.146Z,5.63
2018-06-16T21:56:43.915Z,5.03
2018-06-16T21:59:12.828Z,6.00
2018-06-16T22:01:41.376Z,5.57
2018-06-16T22:04:10.261Z,7.00
2018-06-16T22:06:38.796Z,6.23
2018-06-16T22:09:09.752Z,6.60
2018-06-16T22:11:38.321Z,6.00
2018-06-16T22:14:07.156Z,6.40
2018-06-16T22:16:35.792Z,5.93
2018-06-16T22:19:04.945Z,6.20
2018-06-16T22:21:33.653Z,5.83
2018-06-16T22:24:02.249Z,5.80
2018-06-16T22:26:30.958Z,5.90
2018-06-16T22:28:59.488Z,6.10
2018-06-16T22:31:27.992Z,6.17
2018-06-16T22:33:56.474Z,6.20
2018-06-16T22:36:24.676Z,6.20
2018-06-16T22:38:53.581Z,5.80
2018-06-16T22:41:22.095Z,6.80
2018-06-16T22:43:50.575Z,6.40
2018-06-16T22:46:19.048Z,5.80
2018-06-16T22:48:47.889Z,6.00
2018-06-16T22:51:16.378Z,6.27
2018-06-16T22:53:44.953Z,6.70
2018-06-16T22:56:13.495Z,6.00
2018-06-16T22:58:42.043Z,7.40
2018-06-16T23:01:10.537Z,6.90
2018-06-16T23:03:39.061Z,5.93
2018-06-16T23:06:07.744Z,7.03
2018-06-16T23:08:36.321Z,7.10
2018-06-16T23:11:04.809Z,7.23
2018-06-16T23:13:33.262Z,6.37
2018-06-16T23:16:01.840Z,7.30
2018-06-16T23:18:30.399Z,7.27
2018-06-16T23:20:59.061Z,6.30
2018-06-16T23:23:27.493Z,6.93
2018-06-16T23:25:56.139Z,6.30
2018-06-16T23:28:24.684Z,6.80
2018-06-16T23:30:53.218Z,7.27
2018-06-16T23:33:22.149Z,5.80
2018-06-16T23:35:50.677Z,6.77
2018-06-16T23:38:19.113Z,5.87
2018-06-16T23:40:47.609Z,5.60
2018-06-16T23:43:16.101Z,5.77
2018-06-16T23:45:44.618Z,6.37
2018-06-16T23:48:13.212Z,6.40
2018-06-16T23:50:41.741Z,6.23
2018-06-16T23:53:11.003Z,5.97
2018-06-16T23:55:39.490Z,6.03
2018-06-16T23:58:07.980Z,5.77
